Terminal Aerodrome Forecast
Issued by NWS

Home | Current Version | Previous Version | Text Only | Print | Product List | Glossary On
Versions: 1 2 3 4 5 6 7 8 9 10 11 12 13 14 15 16
968
FTUS41 KCAR 112339
TAFHUL
TAF
KHUL 112339Z 1200/1224 02004KT P6SM SCT120 BKN220
     FM120800 VRB03KT P6SM BKN090 OVC150
     FM121600 10008KT 1 1/2SM -SN OVC020
     FM121800 10010KT 3/4SM -SN BR OVC009
     FM122000 10012G20KT 3/4SM -SN BLSN OVC005=

USA.gov is the U.S. government's official web portal to all federal, state and local government web resources and services.